Time;durP1;ratioP1;P1;durP2;ratioP2;P2;SDS_P1;SDS_P2;PMS_P1;PMS_P2;Temp;Humidity;BMP_temperature;BMP_pressure;BME280_temperature;BME280_humidity;BME280_pressure;Samples;Min_cycle;Max_cycle;Signal;HPM_P1;HPM_P2
2023/02/19 00:02:08;;;;;;;0.70;0.70;;;11.10;80.00;;;10.92;67.93;94957.44;4974448;28;20243;-18
2023/02/19 00:04:35;;;;;;;0.60;0.60;;;11.10;79.90;;;10.96;67.58;94966.56;4974247;28;20197;-18
2023/02/19 00:07:02;;;;;;;0.60;0.60;;;11.10;79.90;;;10.97;67.59;94956.84;4973183;28;20766;-17
2023/02/19 00:09:30;;;;;;;0.60;0.60;;;11.10;79.80;;;11.00;67.40;94961.75;4974391;28;20209;-18
2023/02/19 00:11:57;;;;;;;0.80;0.80;;;11.10;79.70;;;11.00;67.32;94959.91;4974331;28;20240;-18
2023/02/19 00:14:24;;;;;;;0.80;0.80;;;11.10;79.60;;;11.00;67.28;94956.50;4974162;28;20198;-18
2023/02/19 00:16:51;;;;;;;0.63;0.63;;;11.10;79.60;;;11.02;67.11;94957.09;4974284;28;20225;-18
2023/02/19 00:19:20;;;;;;;0.80;0.80;;;11.10;79.40;;;11.00;67.28;94952.03;4974234;28;20248;-18
2023/02/19 00:21:50;;;;;;;0.70;0.70;;;11.20;79.60;;;11.01;66.93;94958.91;4974134;28;20252;-18
2023/02/19 00:24:20;;;;;;;0.60;0.60;;;11.20;79.40;;;11.01;67.00;94951.03;4974014;28;20178;-18
2023/02/19 00:26:47;;;;;;;0.65;0.65;;;11.20;79.30;;;11.02;67.28;94952.66;4974032;28;20204;-18
2023/02/19 00:29:20;;;;;;;0.60;0.60;;;11.20;79.20;;;11.01;66.68;94948.41;4974188;28;20657;-17
2023/02/19 00:31:47;;;;;;;0.68;0.68;;;11.20;79.30;;;11.01;66.80;94958.91;4974055;28;20265;-18
2023/02/19 00:34:15;;;;;;;0.60;0.60;;;11.20;79.20;;;10.98;66.72;94963.72;4972827;28;20206;-18
2023/02/19 00:36:43;;;;;;;0.60;0.60;;;11.20;79.20;;;10.93;66.56;94948.56;4972884;28;20619;-18
2023/02/19 00:39:14;;;;;;;0.60;0.60;;;11.10;79.20;;;10.92;66.40;94946.13;4973005;28;20190;-18
2023/02/19 00:41:42;;;;;;;0.60;0.60;;;11.10;79.10;;;10.94;66.15;94944.94;4941744;28;20200;-18
2023/02/19 00:44:11;;;;;;;0.70;0.70;;;11.00;79.10;;;10.90;66.16;94951.59;4973919;28;20210;-19
2023/02/19 00:46:46;;;;;;;0.70;0.70;;;11.00;79.10;;;10.89;66.25;94950.75;4973831;28;20197;-18
2023/02/19 00:49:23;;;;;;;0.60;0.60;;;11.00;79.10;;;10.87;66.12;94949.34;4972815;28;20198;-18
2023/02/19 00:51:52;;;;;;;0.60;0.60;;;11.00;79.00;;;10.85;65.92;94949.53;4972918;28;20232;-17
2023/02/19 00:54:21;;;;;;;0.60;0.60;;;11.00;79.70;;;10.84;65.99;94947.09;4957040;28;20263;-18
2023/02/19 00:56:49;;;;;;;0.60;0.60;;;11.00;78.80;;;10.83;66.03;94951.53;4973576;28;20229;-18
2023/02/19 00:59:16;;;;;;;0.70;0.70;;;11.00;78.80;;;10.84;66.02;94954.94;4972680;28;20224;-17
2023/02/19 01:01:45;;;;;;;0.70;0.70;;;10.90;78.80;;;10.81;65.80;94947.47;4973781;28;20198;-18
2023/02/19 01:04:12;;;;;;;0.68;0.68;;;10.90;78.80;;;10.82;65.80;94944.66;4973354;28;20269;-18
2023/02/19 01:06:40;;;;;;;0.60;0.60;;;10.90;78.60;;;10.83;65.71;94942.84;4972396;28;20568;-18
2023/02/19 01:09:07;;;;;;;0.70;0.70;;;10.90;78.60;;;10.82;65.40;94930.75;4956785;28;20209;-20
2023/02/19 01:11:34;;;;;;;0.70;0.70;;;10.90;78.40;;;10.80;65.49;94948.47;4972454;28;20202;-18
2023/02/19 01:14:03;;;;;;;0.60;0.60;;;11.00;78.50;;;10.79;65.76;94944.22;4972435;28;20279;-18
2023/02/19 01:16:31;;;;;;;0.70;0.70;;;10.90;78.50;;;10.75;66.02;94958.75;4972582;28;20652;-18
2023/02/19 01:18:58;;;;;;;0.70;0.70;;;10.90;78.60;;;10.73;65.27;94957.13;4972410;28;20200;-18
2023/02/19 01:21:29;;;;;;;0.60;0.60;;;10.80;78.40;;;10.73;65.43;94940.59;4973330;28;20221;-19
2023/02/19 01:23:57;;;;;;;0.65;0.65;;;10.80;78.60;;;10.73;65.19;94936.13;4972251;28;20186;-17
2023/02/19 01:26:30;;;;;;;0.80;0.80;;;10.90;78.50;;;10.81;65.25;94944.84;4972339;28;20209;-17
2023/02/19 01:28:59;;;;;;;0.70;0.70;;;10.90;78.30;;;10.86;65.03;94951.16;4972316;28;20288;-18
2023/02/19 01:31:27;;;;;;;0.60;0.60;;;10.90;78.10;;;10.84;64.96;94950.53;4956458;28;20210;-18
2023/02/19 01:33:58;;;;;;;0.80;0.80;;;10.90;78.20;;;10.84;65.13;94936.59;4956215;28;20206;-18
2023/02/19 01:36:27;;;;;;;0.68;0.68;;;11.00;78.10;;;10.85;65.00;94936.41;4956317;28;20620;-18
2023/02/19 01:38:54;;;;;;;0.80;0.80;;;11.00;78.10;;;10.87;65.24;94942.25;4972289;28;20264;-20
2023/02/19 01:41:24;;;;;;;0.63;0.63;;;11.00;77.90;;;10.85;64.84;94927.72;4973238;28;20247;-18
2023/02/19 01:44:06;;;;;;;0.50;0.50;;;11.00;77.90;;;10.85;64.91;94923.28;4971978;28;20301;-17
2023/02/19 01:46:40;;;;;;;0.60;0.60;;;11.00;77.80;;;10.85;64.76;94923.28;4973528;28;20224;-17
2023/02/19 01:49:30;;;;;;;0.60;0.60;;;11.00;77.80;;;10.83;64.76;94922.66;4956226;28;20213;-17
2023/02/19 01:52:11;;;;;;;0.63;0.63;;;11.00;77.70;;;10.80;64.80;94920.44;4972993;28;20186;-18
2023/02/19 01:54:40;;;;;;;0.70;0.70;;;11.00;77.70;;;10.78;64.71;94914.56;4971887;28;20275;-18
2023/02/19 01:57:16;;;;;;;0.70;0.70;;;11.00;77.70;;;10.78;64.75;94905.88;4955970;28;20225;-18
2023/02/19 01:59:46;;;;;;;0.70;0.70;;;10.90;77.60;;;10.79;64.89;94905.69;4956173;28;20196;-18
2023/02/19 02:02:13;;;;;;;0.70;0.70;;;11.00;77.60;;;10.77;64.76;94905.06;4972043;28;20197;-18
2023/02/19 02:04:40;;;;;;;0.80;0.80;;;11.00;77.70;;;10.78;64.80;94909.31;4972706;28;20256;-18
2023/02/19 02:10:18;;;;;;;0.80;0.80;;;10.90;77.50;;;10.80;64.78;94903.88;4972574;28;20241;-18
2023/02/19 02:12:41;;;;;;;0.80;0.80;;;11.00;77.40;;;10.77;64.29;94891.16;4972771;28;20195;-18
2023/02/19 02:15:08;;;;;;;0.70;0.70;;;11.00;77.30;;;10.77;64.32;94891.97;4971619;28;20194;-17
2023/02/19 02:18:15;;;;;;;0.70;0.70;;;10.90;77.20;;;10.72;64.27;94896.97;4972793;28;20218;-18
2023/02/19 02:21:06;;;;;;;0.70;0.70;;;10.90;77.30;;;10.63;64.61;94892.88;4972396;28;20217;-18
2023/02/19 02:24:31;;;;;;;0.70;0.70;;;10.90;77.20;;;10.62;64.40;94896.50;4975075;28;20269;-18
2023/02/19 02:27:23;;;;;;;0.80;0.80;;;10.80;77.30;;;10.62;64.39;94896.50;4959100;28;20532;-18
2023/02/19 02:30:40;;;;;;;0.65;0.65;;;10.80;77.40;;;10.63;64.54;94892.88;4959015;28;20199;-17
2023/02/19 02:33:16;;;;;;;0.70;0.70;;;10.80;77.40;;;10.64;64.35;94881.38;4975789;28;20198;-17
2023/02/19 02:36:00;;;;;;;0.80;0.80;;;10.90;77.50;;;10.64;64.41;94869.06;4975613;28;20204;-18
2023/02/19 02:38:32;;;;;;;0.60;0.60;;;10.80;77.40;;;10.66;64.27;94867.06;4958843;28;20274;-18
2023/02/19 02:41:00;;;;;;;0.80;0.80;;;10.90;77.40;;;10.70;64.42;94868.28;4974791;28;20289;-17
2023/02/19 02:43:28;;;;;;;0.60;0.60;;;10.90;77.40;;;10.75;64.45;94872.97;4958897;28;20336;-18
2023/02/19 02:45:56;;;;;;;0.70;0.70;;;10.80;77.30;;;10.80;64.25;94872.41;4974522;28;20226;-19
2023/02/19 02:48:52;;;;;;;0.70;0.70;;;10.90;77.30;;;10.81;64.23;94871.41;4974696;28;20187;-18
2023/02/19 02:51:32;;;;;;;0.70;0.70;;;11.00;77.30;;;10.82;64.27;94862.53;4959051;28;20288;-18
2023/02/19 02:57:05;;;;;;;0.70;0.70;;;11.00;77.20;;;10.87;64.01;94868.78;4961512;28;20651;-17
2023/02/19 02:59:38;;;;;;;0.60;0.60;;;11.10;77.30;;;10.89;64.14;94853.66;4974669;28;20203;-18
2023/02/19 03:02:21;;;;;;;0.80;0.80;;;11.10;77.20;;;10.93;63.98;94855.91;4974486;28;20252;-18
2023/02/19 03:07:54;;;;;;;0.52;0.52;;;11.10;77.10;;;10.93;63.84;94851.47;4974287;28;20580;-17
2023/02/19 03:10:30;;;;;;;0.80;0.80;;;11.10;77.20;;;10.97;63.94;94857.13;4958569;28;20271;-18
2023/02/19 03:21:28;;;;;;;0.80;0.80;;;11.20;77.00;;;10.94;64.14;94839.97;4948066;28;20198;-18
2023/02/19 03:26:44;;;;;;;0.60;0.60;;;11.20;76.90;;;10.97;63.77;94828.28;4974123;28;20198;-18
2023/02/19 03:29:22;;;;;;;0.70;0.70;;;11.20;76.90;;;10.98;63.46;94833.31;4957921;28;20552;-18
2023/02/19 03:31:57;;;;;;;0.80;0.80;;;11.20;76.70;;;11.00;63.54;94830.50;4974468;28;20214;-18
2023/02/19 03:34:43;;;;;;;0.70;0.70;;;11.30;76.60;;;11.00;63.14;94825.25;4942986;28;20245;-18
2023/02/19 03:37:35;;;;;;;0.60;0.60;;;11.20;76.40;;;11.04;62.89;94824.66;4958084;28;20203;-18
2023/02/19 03:40:03;;;;;;;0.60;0.60;;;11.20;76.50;;;11.03;63.16;94827.47;4973942;28;20194;-17
2023/02/19 03:43:11;;;;;;;0.80;0.80;;;11.30;76.40;;;11.07;63.09;94825.28;4974708;28;20194;-18
2023/02/19 03:46:14;;;;;;;0.60;0.60;;;11.30;76.40;;;11.08;62.35;94827.69;4973657;28;20193;-17
2023/02/19 03:48:58;;;;;;;0.50;0.50;;;11.30;76.30;;;11.08;62.84;94826.91;4957928;28;20198;-17
2023/02/19 03:52:03;;;;;;;0.60;0.60;;;11.30;76.20;;;11.05;62.68;94825.47;4973684;28;20206;-19
2023/02/19 03:55:17;;;;;;;0.70;0.70;;;11.30;76.10;;;11.10;62.79;94824.91;4973790;28;20216;-18
2023/02/19 03:57:55;;;;;;;0.60;0.60;;;11.20;76.00;;;11.09;62.63;94812.78;4958128;28;20214;-18
2023/02/19 04:00:29;;;;;;;0.60;0.60;;;11.30;75.90;;;11.09;62.30;94815.41;4957680;28;20285;-18
2023/02/19 04:03:40;;;;;;;0.80;0.80;;;11.30;75.60;;;11.05;62.31;94812.34;4973857;28;20667;-17
2023/02/19 04:06:22;;;;;;;0.68;0.68;;;11.30;75.50;;;11.03;62.17;94817.81;4970582;28;20315;-17
2023/02/19 04:08:54;;;;;;;0.60;0.60;;;11.30;75.50;;;11.02;62.31;94821.44;4974098;28;20189;-17
2023/02/19 04:11:24;;;;;;;0.70;0.70;;;11.30;75.70;;;11.02;62.18;94818.81;4974015;28;20284;-17
2023/02/19 04:14:12;;;;;;;0.68;0.68;;;11.30;75.50;;;11.02;62.14;94815.34;4973549;28;20205;-18
2023/02/19 04:16:44;;;;;;;0.60;0.60;;;11.20;75.40;;;11.03;62.42;94809.09;4974547;28;20593;-18
2023/02/19 04:19:17;;;;;;;0.60;0.60;;;11.20;75.40;;;11.05;62.40;94813.16;4973599;28;20210;-17
2023/02/19 04:21:45;;;;;;;0.80;0.80;;;11.30;75.50;;;11.07;62.11;94806.91;4973362;28;20595;-19
2023/02/19 04:24:38;;;;;;;0.80;0.80;;;11.30;75.50;;;11.05;62.30;94794.78;4973257;28;20255;-18
2023/02/19 04:27:06;;;;;;;0.52;0.52;;;11.40;75.60;;;11.08;62.46;94798.03;4974301;28;20193;-18
2023/02/19 04:29:33;;;;;;;0.70;0.70;;;11.30;75.50;;;11.05;62.76;94796.59;4973236;28;20645;-20
2023/02/19 04:32:00;;;;;;;0.60;0.60;;;11.30;75.80;;;11.09;63.02;94791.78;4973988;28;20209;-19
2023/02/19 04:34:27;;;;;;;0.60;0.60;;;11.30;76.10;;;10.99;63.62;94800.81;4973886;28;20641;-19
2023/02/19 04:36:54;;;;;;;0.60;0.60;;;11.20;76.40;;;10.98;63.99;94798.41;4973939;28;20277;-18
2023/02/19 04:39:21;;;;;;;0.80;0.80;;;11.20;76.60;;;10.93;64.14;94804.22;4974373;28;20657;-18
2023/02/19 04:41:48;;;;;;;0.68;0.68;;;11.20;76.70;;;10.91;64.40;94794.94;4973853;28;20527;-18
2023/02/19 04:44:15;;;;;;;0.70;0.70;;;11.10;76.90;;;10.87;64.74;94784.81;4973844;28;20203;-18
2023/02/19 04:46:42;;;;;;;0.60;0.60;;;11.10;77.00;;;10.86;64.90;94793.72;4973662;28;20194;-18
2023/02/19 04:49:09;;;;;;;0.60;0.60;;;11.10;77.30;;;10.79;65.04;94792.88;4973823;28;20268;-19
2023/02/19 04:51:37;;;;;;;0.60;0.60;;;11.00;77.40;;;10.73;65.17;94783.19;4973749;28;20204;-18
2023/02/19 04:54:04;;;;;;;0.60;0.60;;;11.00;77.50;;;10.73;65.31;94781.34;4973680;28;20198;-18
2023/02/19 04:56:31;;;;;;;0.60;0.60;;;11.00;77.50;;;10.73;65.57;94788.44;4973867;28;20199;-19
2023/02/19 04:58:59;;;;;;;0.70;0.70;;;11.00;77.70;;;10.75;65.54;94780.34;4973588;28;20268;-19
2023/02/19 05:01:26;;;;;;;0.60;0.60;;;10.90;77.60;;;10.73;65.61;94770.06;4973614;28;20190;-18
2023/02/19 05:03:53;;;;;;;0.60;0.60;;;11.00;77.70;;;10.75;65.65;94769.88;4972797;28;20190;-21
2023/02/19 05:06:20;;;;;;;0.60;0.60;;;11.00;77.90;;;10.71;65.99;94761.56;4973329;28;20234;-18
2023/02/19 05:08:47;;;;;;;0.60;0.60;;;10.90;77.80;;;10.68;65.91;94754.91;4973473;28;20195;-19
2023/02/19 05:11:14;;;;;;;0.70;0.70;;;11.00;78.00;;;10.67;66.20;94753.28;4973554;28;20532;-18
2023/02/19 05:13:41;;;;;;;0.60;0.60;;;10.90;77.90;;;10.67;66.00;94752.50;4973457;28;20198;-18
2023/02/19 05:16:14;;;;;;;0.65;0.65;;;10.90;78.00;;;10.67;65.69;94747.25;4973264;28;20277;-18
2023/02/19 05:18:45;;;;;;;0.60;0.60;;;10.90;78.00;;;10.62;66.43;94739.13;4972518;28;20210;-18
2023/02/19 05:21:14;;;;;;;0.70;0.70;;;10.90;78.10;;;10.60;66.38;94744.59;4972343;28;20248;-18
2023/02/19 05:23:42;;;;;;;0.63;0.63;;;10.90;78.20;;;10.59;66.40;94744.78;4973340;28;20195;-18
2023/02/19 05:26:21;;;;;;;0.70;0.70;;;10.80;78.30;;;10.57;66.73;94739.75;4973193;28;20194;-18
2023/02/19 05:28:51;;;;;;;0.60;0.60;;;10.80;78.50;;;10.54;66.82;94740.91;4973096;28;20194;-19
2023/02/19 05:31:19;;;;;;;0.60;0.60;;;10.80;78.70;;;10.52;66.80;94724.59;4973121;28;20518;-18
2023/02/19 05:33:49;;;;;;;0.60;0.60;;;10.70;78.60;;;10.54;66.97;94717.31;4972404;28;20202;-18
2023/02/19 05:36:19;;;;;;;0.60;0.60;;;10.80;78.70;;;10.53;66.76;94714.91;4973288;28;20205;-18
2023/02/19 05:38:51;;;;;;;0.80;0.80;;;10.70;78.60;;;10.54;66.77;94725.19;4973171;28;20275;-20
2023/02/19 05:41:28;;;;;;;0.60;0.60;;;10.70;78.60;;;10.53;67.01;94725.38;4973047;28;20177;-18
2023/02/19 05:43:56;;;;;;;0.70;0.70;;;10.80;78.90;;;10.47;67.23;94728.78;4973070;28;20264;-18
2023/02/19 05:46:28;;;;;;;0.80;0.80;;;10.70;79.00;;;10.40;67.48;94724.34;4973051;28;20593;-18
2023/02/19 05:48:56;;;;;;;0.80;0.80;;;10.70;79.10;;;10.40;67.49;94736.66;4973304;28;20245;-19
2023/02/19 05:51:25;;;;;;;0.60;0.60;;;10.60;79.10;;;10.42;67.43;94739.88;4971996;28;20228;-19
2023/02/19 05:53:52;;;;;;;0.80;0.80;;;10.70;79.30;;;10.45;67.50;94751.78;4975965;28;20202;-19
2023/02/19 05:56:35;;;;;;;0.63;0.63;;;10.60;79.30;;;10.45;67.71;94751.78;4976336;28;20218;-19
2023/02/19 05:59:16;;;;;;;0.60;0.60;;;10.70;79.40;;;10.48;67.82;94736.47;4976255;28;20642;-19
2023/02/19 06:01:43;;;;;;;0.80;0.80;;;10.60;79.60;;;10.47;67.89;94753.19;4976198;28;20178;-19
2023/02/19 06:04:11;;;;;;;0.60;0.60;;;10.70;79.80;;;10.46;67.99;94756.84;4976324;28;20206;-18
2023/02/19 06:06:38;;;;;;;0.80;0.80;;;10.60;79.90;;;10.50;68.29;94749.41;4976026;28;20568;-19
2023/02/19 06:09:07;;;;;;;0.70;0.70;;;10.60;80.00;;;10.51;68.25;94751.81;4976228;28;20634;-19
2023/02/19 06:11:35;;;;;;;0.57;0.57;;;10.70;80.00;;;10.52;67.78;94744.75;4975982;28;20201;-19
2023/02/19 06:14:02;;;;;;;0.70;0.70;;;10.70;80.00;;;10.56;68.20;94748.59;4975264;28;20198;-18
2023/02/19 06:16:31;;;;;;;0.70;0.70;;;10.70;80.10;;;10.57;68.09;94743.16;4976082;28;20206;-19
2023/02/19 06:18:58;;;;;;;0.60;0.60;;;10.70;80.10;;;10.60;68.17;94759.53;4975957;28;20214;-19
2023/02/19 06:21:25;;;;;;;0.55;0.55;;;10.70;80.20;;;10.60;68.23;94741.16;4975883;28;20195;-19
2023/02/19 06:23:52;;;;;;;0.80;0.80;;;10.90;80.40;;;10.60;68.27;94749.81;4975994;28;20638;-21
2023/02/19 06:26:22;;;;;;;0.80;0.80;;;10.80;80.30;;;10.62;67.95;94750.44;4975909;28;20572;-19
2023/02/19 06:28:52;;;;;;;0.60;0.60;;;10.80;81.10;;;10.63;68.11;94748.63;4976167;28;20194;-21
2023/02/19 06:31:21;;;;;;;0.80;0.80;;;10.80;80.20;;;10.67;67.92;94752.50;4974921;28;20621;-18
2023/02/19 06:33:49;;;;;;;0.70;0.70;;;10.80;80.20;;;10.68;68.03;94760.16;4975759;28;20540;-18
2023/02/19 06:36:19;;;;;;;0.60;0.60;;;10.90;80.30;;;10.69;68.02;94753.91;4976288;28;20194;-19
2023/02/19 06:38:46;;;;;;;0.80;0.80;;;10.80;80.30;;;10.69;67.95;94751.28;4975640;28;20214;-19
2023/02/19 06:41:14;;;;;;;0.70;0.70;;;10.90;80.30;;;10.73;67.81;94757.75;4975480;28;20199;-20
2023/02/19 06:43:41;;;;;;;0.70;0.70;;;10.90;80.30;;;10.80;67.78;94763.03;4975838;28;20186;-19
2023/02/19 06:46:10;;;;;;;0.70;0.70;;;11.00;80.30;;;10.83;67.88;94761.81;4974715;28;20191;-20
2023/02/19 06:48:39;;;;;;;0.70;0.70;;;10.90;80.30;;;10.91;67.51;94761.63;4975800;28;20202;-19
2023/02/19 06:51:06;;;;;;;0.60;0.60;;;11.00;80.30;;;10.96;67.48;94764.50;4975738;28;20206;-20
2023/02/19 06:53:34;;;;;;;0.65;0.65;;;11.00;80.10;;;11.01;67.20;94763.88;4975483;28;20282;-18
2023/02/19 06:56:05;;;;;;;0.70;0.70;;;11.10;80.00;;;11.02;67.08;94753.19;4975731;28;20255;-19
2023/02/19 06:58:33;;;;;;;0.65;0.65;;;11.20;79.90;;;11.10;66.34;94756.66;4974483;28;20214;-19
2023/02/19 07:01:00;;;;;;;0.60;0.60;;;11.20;79.60;;;11.12;66.39;94771.19;4975390;28;20194;-18
2023/02/19 07:03:27;;;;;;;0.70;0.70;;;11.30;79.60;;;11.15;66.30;94756.84;4974531;28;20233;-19
2023/02/19 07:05:54;;;;;;;0.70;0.70;;;11.30;79.60;;;11.21;65.96;94766.56;4974266;28;20562;-20
2023/02/19 07:08:21;;;;;;;0.60;0.60;;;11.30;79.40;;;11.28;65.72;94761.31;4975607;28;20186;-19
2023/02/19 07:10:58;;;;;;;0.60;0.60;;;11.30;79.20;;;11.28;65.72;94763.94;4975082;28;20194;-18
2023/02/19 07:13:26;;;;;;;0.80;0.80;;;11.40;79.10;;;11.32;65.65;94770.41;4975342;28;20186;-20
2023/02/19 07:16:03;;;;;;;0.70;0.70;;;11.40;79.00;;;11.35;65.32;94765.56;4975498;28;20671;-18
2023/02/19 07:18:31;;;;;;;0.60;0.60;;;11.50;78.70;;;11.38;65.20;94770.41;4958406;28;20260;-18
2023/02/19 07:21:08;;;;;;;0.80;0.80;;;11.50;78.70;;;11.45;64.67;94778.31;4974972;28;20577;-19
2023/02/19 07:23:36;;;;;;;0.60;0.60;;;11.60;78.40;;;11.46;65.07;94787.81;4975170;28;20265;-19
2023/02/19 07:26:06;;;;;;;0.50;0.50;;;11.60;78.50;;;11.50;64.93;94782.97;4974379;28;20186;-19
2023/02/19 07:28:33;;;;;;;0.60;0.60;;;11.60;78.40;;;11.51;64.81;94782.75;4974501;28;20183;-19
2023/02/19 07:31:02;;;;;;;0.60;0.60;;;11.80;79.10;;;11.59;64.51;94786.22;4974801;28;20205;-18
2023/02/19 07:33:30;;;;;;;0.50;0.50;;;11.70;78.20;;;11.59;64.65;94792.25;4975230;28;20267;-19
2023/02/19 07:35:57;;;;;;;0.68;0.68;;;11.70;78.20;;;11.61;64.39;94794.69;4974887;28;20209;-18
2023/02/19 07:38:25;;;;;;;0.50;0.50;;;11.70;78.10;;;11.67;64.34;94788.66;4975377;28;20199;-17
2023/02/19 07:40:59;;;;;;;0.50;0.50;;;11.80;78.10;;;11.69;64.22;94805.00;4973825;28;20641;-18
2023/02/19 07:43:31;;;;;;;0.63;0.63;;;11.80;78.00;;;11.71;64.48;94791.69;4974771;28;20190;-19
2023/02/19 07:46:03;;;;;;;0.60;0.60;;;11.90;78.10;;;11.78;63.80;94793.28;4974088;28;20193;-19
2023/02/19 07:48:31;;;;;;;0.60;0.60;;;12.00;77.70;;;11.80;63.85;94809.66;4974949;28;20202;-19
2023/02/19 07:51:00;;;;;;;0.65;0.65;;;12.00;77.80;;;11.86;63.96;94808.03;4974498;28;20205;-19
2023/02/19 07:53:28;;;;;;;0.70;0.70;;;12.10;77.80;;;11.90;63.34;94814.53;4974711;28;20194;-28
2023/02/19 07:56:00;;;;;;;0.60;0.60;;;12.10;77.50;;;11.93;64.17;94816.72;4974549;28;20191;-18
2023/02/19 07:58:28;;;;;;;0.60;0.60;;;12.10;77.70;;;11.92;64.21;94806.44;4974567;28;20198;-18
2023/02/19 08:00:56;;;;;;;0.70;0.70;;;12.20;77.90;;;11.90;64.34;94816.31;4974697;28;20190;-18
2023/02/19 08:03:23;;;;;;;0.60;0.60;;;12.10;77.70;;;11.82;64.29;94817.34;4974713;28;20271;-18
2023/02/19 08:05:52;;;;;;;0.60;0.60;;;12.10;77.80;;;11.72;65.05;94820.38;4974326;28;20321;-19
2023/02/19 08:08:19;;;;;;;0.70;0.70;;;12.10;78.00;;;11.67;65.13;94828.84;4974851;28;20174;-19
2023/02/19 08:13:33;;;;;;;0.50;0.50;;;11.90;78.40;;;11.64;65.99;94816.09;4974471;28;20188;-19
2023/02/19 08:16:02;;;;;;;0.60;0.60;;;11.90;78.70;;;11.66;66.22;94821.19;4974165;28;20321;-18
2023/02/19 08:18:46;;;;;;;0.60;0.60;;;11.90;78.80;;;11.63;66.19;94825.00;4974267;28;20260;-19
2023/02/19 08:21:13;;;;;;;0.60;0.60;;;11.90;78.90;;;11.61;66.39;94834.91;4974239;28;20194;-19
2023/02/19 08:23:40;;;;;;;0.60;0.60;;;11.90;79.10;;;11.64;66.27;94842.38;4973356;28;20198;-20
2023/02/19 08:26:08;;;;;;;0.60;0.60;;;11.90;79.10;;;11.63;66.27;94848.66;4973817;28;20197;-19
2023/02/19 08:28:35;;;;;;;0.50;0.50;;;11.90;79.10;;;11.61;66.76;94832.28;4974782;28;20570;-19
2023/02/19 08:31:05;;;;;;;0.60;0.60;;;11.90;79.30;;;11.63;66.93;94832.06;4973552;28;20567;-20
2023/02/19 08:33:33;;;;;;;0.60;0.60;;;11.80;79.60;;;11.69;67.04;94841.78;4973164;28;20230;-19
2023/02/19 08:36:03;;;;;;;0.63;0.63;;;11.90;79.70;;;11.76;67.41;94832.09;4957946;28;20198;-19
2023/02/19 08:38:34;;;;;;;0.70;0.70;;;11.90;80.10;;;11.82;67.73;94841.00;4974491;28;20189;-19
2023/02/19 08:41:09;;;;;;;0.60;0.60;;;12.00;80.30;;;11.94;67.06;94834.13;4974441;28;20240;-25
2023/02/19 08:43:39;;;;;;;0.60;0.60;;;12.10;80.10;;;12.01;65.90;94834.97;4974195;28;20186;-19
2023/02/19 08:46:08;;;;;;;0.80;0.80;;;12.20;79.70;;;12.02;66.72;94835.75;4974686;28;20190;-19
2023/02/19 08:48:37;;;;;;;0.70;0.70;;;12.30;79.80;;;12.08;65.80;94844.66;4974100;28;20661;-19
2023/02/19 08:51:07;;;;;;;0.50;0.50;;;12.30;79.10;;;12.12;66.21;94837.97;4974525;28;20518;-19
2023/02/19 08:53:37;;;;;;;0.70;0.70;;;12.30;79.50;;;12.17;65.03;94860.03;4974373;28;20545;-19
2023/02/19 08:56:11;;;;;;;0.60;0.60;;;12.40;78.70;;;12.17;64.57;94865.28;4973848;28;20198;-19
2023/02/19 08:58:38;;;;;;;0.70;0.70;;;12.40;78.30;;;12.16;63.80;94844.47;4973971;28;20240;-18
2023/02/19 09:01:15;;;;;;;0.70;0.70;;;12.40;77.80;;;12.13;62.97;94852.75;4973989;28;20190;-19
2023/02/19 09:03:43;;;;;;;0.60;0.60;;;12.40;77.00;;;12.04;63.05;94859.25;4974112;28;20182;-19
2023/02/19 09:06:17;;;;;;;0.60;0.60;;;12.30;76.80;;;12.05;63.20;94848.50;4973577;28;20320;-18
2023/02/19 09:08:45;;;;;;;0.60;0.60;;;12.30;77.30;;;12.04;63.74;94846.88;4974388;28;20594;-19
2023/02/19 09:11:12;;;;;;;0.70;0.70;;;12.30;77.50;;;12.08;61.60;94861.25;4972905;28;20206;-18
2023/02/19 09:13:40;;;;;;;0.68;0.68;;;12.30;76.20;;;12.09;61.73;94847.09;4973646;28;20199;-20
2023/02/19 09:16:09;;;;;;;0.60;0.60;;;12.30;76.20;;;12.24;61.76;94857.41;4973821;28;20224;-19
2023/02/19 09:18:36;;;;;;;0.60;0.60;;;12.30;76.20;;;12.35;58.95;94877.00;4973815;28;20195;-20
2023/02/19 09:21:04;;;;;;;0.63;0.63;;;12.50;75.30;;;12.47;60.59;94840.38;4973990;28;20568;-20
2023/02/19 09:23:33;;;;;;;0.70;0.70;;;12.50;76.30;;;12.57;60.18;94840.78;4973607;28;20256;-18
2023/02/19 09:26:05;;;;;;;0.60;0.60;;;12.60;75.70;;;12.76;59.04;94843.56;4973597;28;20199;-18
2023/02/19 09:28:32;;;;;;;0.60;0.60;;;12.70;75.30;;;12.92;57.47;94866.00;4973086;28;20190;-19
2023/02/19 09:31:09;;;;;;;0.60;0.60;;;12.90;74.20;;;13.08;57.13;94846.28;4973688;28;20213;-18
2023/02/19 09:33:44;;;;;;;0.60;0.60;;;13.00;73.90;;;13.18;55.54;94843.19;4973640;28;20186;-18
2023/02/19 09:36:13;;;;;;;0.60;0.60;;;13.20;72.70;;;13.19;55.33;94860.63;4973416;28;20610;-19
2023/02/19 09:38:40;;;;;;;0.60;0.60;;;13.30;72.10;;;13.22;55.11;94847.84;4972529;28;20586;-19
2023/02/19 09:41:30;;;;;;;0.60;0.60;;;13.30;72.20;;;13.20;53.72;94839.34;4973456;28;20194;-18
2023/02/19 09:43:59;;;;;;;0.60;0.60;;;13.40;71.20;;;13.13;54.18;94843.81;4972884;28;20261;-18
2023/02/19 09:46:55;;;;;;;0.68;0.68;;;13.40;71.00;;;13.17;53.78;94838.94;4972732;28;20218;-19
2023/02/19 09:49:33;;;;;;;0.80;0.80;;;13.40;70.70;;;13.23;52.73;94841.56;4973210;28;20241;-18
2023/02/19 09:52:11;;;;;;;0.55;0.55;;;13.40;70.10;;;13.26;53.13;94833.22;4973077;28;20185;-18
2023/02/19 09:54:39;;;;;;;0.70;0.70;;;13.50;70.10;;;13.42;53.81;94853.03;4972982;28;20265;-19
2023/02/19 09:57:18;;;;;;;0.60;0.60;;;13.60;70.80;;;13.56;53.30;94839.78;4972475;28;20206;-18
2023/02/19 09:59:59;;;;;;;0.60;0.60;;;13.70;70.30;;;13.67;52.98;94852.31;4972690;28;20543;-19
2023/02/19 10:02:29;;;;;;;0.60;0.60;;;13.80;70.10;;;13.63;51.92;94845.03;4972274;28;20641;-20
2023/02/19 10:04:57;;;;;;;0.60;0.60;;;13.80;69.00;;;13.61;51.43;94851.31;4972827;28;20276;-22
2023/02/19 10:07:39;;;;;;;0.40;0.40;;;13.80;68.80;;;13.55;51.14;94873.25;4972501;28;20241;-20
2023/02/19 10:10:12;;;;;;;0.70;0.70;;;13.80;68.60;;;13.47;50.80;94872.69;4973435;28;20197;-27
2023/02/19 10:12:49;;;;;;;0.70;0.70;;;13.80;68.10;;;13.32;51.06;94870.28;4973431;28;20497;-20
2023/02/19 10:15:27;;;;;;;0.60;0.60;;;13.60;67.80;;;13.02;52.09;94862.91;4972822;28;20606;-27
2023/02/19 10:17:54;;;;;;;0.50;0.50;;;13.50;68.00;;;12.94;51.75;94864.75;4973082;28;20191;-20
2023/02/19 10:20:25;;;;;;;0.65;0.65;;;13.40;68.10;;;12.97;52.70;94863.53;4972259;28;20279;-21
2023/02/19 10:23:05;;;;;;;0.57;0.57;;;13.30;68.90;;;13.08;52.90;94857.59;4972912;28;20189;-19
2023/02/19 10:25:34;;;;;;;0.60;0.60;;;13.30;69.20;;;13.23;52.12;94867.91;4972062;28;20200;-19
2023/02/19 10:28:02;;;;;;;0.50;0.50;;;13.40;68.70;;;13.25;51.95;94876.38;4972733;28;20194;-20
2023/02/19 10:30:33;;;;;;;0.68;0.68;;;13.50;68.50;;;13.22;51.96;94853.13;4972274;28;20208;-20
2023/02/19 10:33:12;;;;;;;0.50;0.50;;;13.50;68.50;;;13.15;52.64;94862.88;4956312;28;20205;-20
2023/02/19 10:36:05;;;;;;;0.60;0.60;;;13.50;69.00;;;13.09;52.46;94867.13;4972832;28;20190;-19
2023/02/19 10:38:36;;;;;;;0.60;0.60;;;13.40;69.20;;;12.95;52.43;94884.81;4972869;28;20190;-19
2023/02/19 10:41:16;;;;;;;0.55;0.55;;;13.30;68.50;;;12.93;55.03;94883.41;4975992;28;20217;-19
2023/02/19 10:44:05;;;;;;;0.60;0.60;;;13.20;70.10;;;12.61;57.38;94872.75;4975588;28;20182;-20
2023/02/19 10:46:43;;;;;;;0.60;0.60;;;13.10;71.60;;;12.38;59.17;94868.72;4975396;28;20581;-19
2023/02/19 10:49:31;;;;;;;0.63;0.63;;;12.90;72.60;;;12.11;60.62;94881.09;4975805;28;20179;-19
2023/02/19 10:52:16;;;;;;;0.60;0.60;;;12.70;73.60;;;11.90;60.08;94874.16;4975880;28;20210;-19
2023/02/19 10:54:45;;;;;;;0.60;0.60;;;12.40;73.90;;;11.72;61.53;94885.22;4974885;28;20236;-19
2023/02/19 10:57:19;;;;;;;0.70;0.70;;;12.20;74.70;;;11.62;61.11;94901.38;4975600;28;20251;-19
2023/02/19 11:00:16;;;;;;;0.70;0.70;;;12.00;74.30;;;11.44;61.26;94889.63;4975811;28;20201;-19
2023/02/19 11:02:44;;;;;;;0.60;0.60;;;11.80;74.60;;;11.30;61.99;94904.53;4975268;28;20183;-19
2023/02/19 11:05:13;;;;;;;0.60;0.60;;;11.70;75.40;;;11.27;61.19;94897.03;4975850;28;20174;-19
2023/02/19 11:07:54;;;;;;;0.60;0.60;;;11.60;75.00;;;11.17;61.82;94899.22;4975415;28;20697;-19